CFG3XL EDDF-LIRF
Flight info
| Callsign | CFG3XL |
|---|---|
| Flight time | N/A |
| Altitude | 37000 |
| Route | CINDY8S/18 CINDY Z74 LAMPU/N0441F350 DCT NOMBO/N0442F370 Y161 RIDAR DCT KONIN DCT BERAS DCT LIKDA DCT BAKOR DCT VESAL DCT VIC DCT KOPER DCT SUKOM DCT GAVRA DCT RITEB |
| Aircraft | A320/M-SDE3FGHIRWY/LB1 |
Departure
| Time | 2026-05-05 16:25 |
|---|---|
| Airport | Frankfurt Main Airport (EDDF) |
Arrival
| Time | N/A |
|---|---|
| Airport | Rome–Fiumicino Leonardo da Vinci International Airport (LIRF) |
| Time | Latitude | Longitude | Altitude | Speed | Heading |
|---|---|---|---|---|---|
| 2026-05-05 15:40 | 50.04531 | 8.56591 | 360 ft | 0 kts | 116° |
| 2026-05-05 16:04 | 50.04536 | 8.56573 | 364 ft | 5 kts | 115° |
| 2026-05-05 16:04 | 50.04551 | 8.56526 | 362 ft | 5 kts | 116° |
| 2026-05-05 16:04 | 50.04566 | 8.56483 | 363 ft | 3 kts | 128° |
| 2026-05-05 16:04 | 50.04575 | 8.56468 | 365 ft | 2 kts | 163° |
| 2026-05-05 16:05 | 50.04586 | 8.56466 | 363 ft | 2 kts | 198° |
| 2026-05-05 16:05 | 50.04596 | 8.56472 | 365 ft | 2 kts | 204° |
| 2026-05-05 16:05 | 50.04598 | 8.56473 | 365 ft | 0 kts | 204° |
| 2026-05-05 16:08 | 50.04587 | 8.56465 | 361 ft | 5 kts | 204° |
| 2026-05-05 16:08 | 50.04541 | 8.56431 | 360 ft | 8 kts | 210° |
| 2026-05-05 16:08 | 50.04511 | 8.56361 | 362 ft | 7 kts | 250° |
| 2026-05-05 16:08 | 50.04499 | 8.56305 | 365 ft | 3 kts | 251° |
| 2026-05-05 16:09 | 50.04487 | 8.56263 | 360 ft | 7 kts | 245° |
| 2026-05-05 16:09 | 50.04466 | 8.56176 | 362 ft | 9 kts | 250° |
| 2026-05-05 16:09 | 50.04441 | 8.56073 | 364 ft | 14 kts | 243° |
| 2026-05-05 16:09 | 50.04354 | 8.56049 | 357 ft | 15 kts | 163° |
| 2026-05-05 16:10 | 50.04264 | 8.56029 | 355 ft | 14 kts | 236° |
| 2026-05-05 16:10 | 50.04230 | 8.55901 | 357 ft | 12 kts | 250° |
| 2026-05-05 16:10 | 50.04202 | 8.55783 | 356 ft | 11 kts | 251° |
| 2026-05-05 16:10 | 50.04179 | 8.55688 | 361 ft | 8 kts | 249° |
| 2026-05-05 16:11 | 50.04158 | 8.55601 | 358 ft | 9 kts | 250° |
| 2026-05-05 16:11 | 50.04143 | 8.55537 | 354 ft | 0 kts | 249° |
| 2026-05-05 16:15 | 50.04134 | 8.55499 | 355 ft | 6 kts | 249° |
| 2026-05-05 16:16 | 50.04041 | 8.55426 | 356 ft | 12 kts | 159° |
| 2026-05-05 16:16 | 50.03905 | 8.55341 | 358 ft | 15 kts | 249° |
| 2026-05-05 16:17 | 50.03859 | 8.55154 | 357 ft | 0 kts | 251° |
| 2026-05-05 16:18 | 50.03859 | 8.55153 | 357 ft | 0 kts | 251° |
| 2026-05-05 16:18 | 50.03853 | 8.55126 | 354 ft | 8 kts | 249° |
| 2026-05-05 16:18 | 50.03794 | 8.54881 | 355 ft | 14 kts | 249° |
| 2026-05-05 16:19 | 50.03764 | 8.54759 | 355 ft | 11 kts | 249° |
| 2026-05-05 16:19 | 50.03740 | 8.54659 | 350 ft | 10 kts | 249° |
| 2026-05-05 16:19 | 50.03701 | 8.54417 | 349 ft | 13 kts | 291° |
| 2026-05-05 16:20 | 50.03806 | 8.54243 | 352 ft | 9 kts | 250° |
| 2026-05-05 16:20 | 50.03749 | 8.54013 | 348 ft | 19 kts | 247° |
| 2026-05-05 16:21 | 50.03655 | 8.53618 | 336 ft | 18 kts | 248° |
| 2026-05-05 16:22 | 50.03541 | 8.53149 | 337 ft | 12 kts | 249° |
| 2026-05-05 16:22 | 50.03486 | 8.52926 | 347 ft | 11 kts | 250° |
| 2026-05-05 16:23 | 50.03440 | 8.52753 | 355 ft | 7 kts | 248° |
| 2026-05-05 16:23 | 50.03421 | 8.52679 | 352 ft | 8 kts | 249° |
| 2026-05-05 16:23 | 50.03373 | 8.52596 | 351 ft | 0 kts | 184° |
| 2026-05-05 16:24 | 50.03307 | 8.52595 | 347 ft | 39 kts | 180° |
| 2026-05-05 16:24 | 50.02802 | 8.52602 | 349 ft | 102 kts | 179° |
| 2026-05-05 16:24 | 50.00778 | 8.52616 | 728 ft | 160 kts | 184° |
| 2026-05-05 16:25 | 49.99918 | 8.52563 | 1353 ft | 149 kts | 178° |
| 2026-05-05 16:25 | 49.97710 | 8.52658 | 1984 ft | 181 kts | 168° |
| 2026-05-05 16:25 | 49.96513 | 8.53587 | 2250 ft | 207 kts | 141° |
| 2026-05-05 16:26 | 49.94995 | 8.57794 | 3184 ft | 237 kts | 103° |
| 2026-05-05 16:26 | 49.94680 | 8.63231 | 4255 ft | 269 kts | 95° |
| 2026-05-05 16:27 | 49.94348 | 8.66099 | 5077 ft | 272 kts | 112° |
| 2026-05-05 16:27 | 49.93405 | 8.68621 | 5939 ft | 271 kts | 133° |
| 2026-05-05 16:27 | 49.91969 | 8.70492 | 6792 ft | 270 kts | 147° |
| 2026-05-05 16:27 | 49.90555 | 8.72432 | 7613 ft | 275 kts | 135° |
| 2026-05-05 16:28 | 49.89243 | 8.74605 | 8452 ft | 277 kts | 135° |
| 2026-05-05 16:28 | 49.87924 | 8.76804 | 9283 ft | 280 kts | 135° |
| 2026-05-05 16:28 | 49.86592 | 8.79030 | 10052 ft | 284 kts | 135° |
| 2026-05-05 16:28 | 49.85200 | 8.81348 | 10354 ft | 305 kts | 135° |
| 2026-05-05 16:29 | 49.83699 | 8.83834 | 10635 ft | 324 kts | 135° |
| 2026-05-05 16:29 | 49.82143 | 8.86416 | 11228 ft | 331 kts | 135° |
| 2026-05-05 16:29 | 49.80560 | 8.89039 | 11909 ft | 335 kts | 135° |
| 2026-05-05 16:29 | 49.78957 | 8.91693 | 12598 ft | 339 kts | 135° |
| 2026-05-05 16:30 | 49.77334 | 8.94376 | 13287 ft | 344 kts | 135° |
| 2026-05-05 16:30 | 49.75689 | 8.97088 | 13926 ft | 348 kts | 135° |
| 2026-05-05 16:30 | 49.74024 | 8.99826 | 14523 ft | 351 kts | 135° |
| 2026-05-05 16:30 | 49.72338 | 9.02592 | 15132 ft | 355 kts | 135° |
| 2026-05-05 16:31 | 49.70639 | 9.05378 | 15736 ft | 358 kts | 135° |
| 2026-05-05 16:31 | 49.68947 | 9.08153 | 16321 ft | 361 kts | 135° |
| 2026-05-05 16:31 | 49.67217 | 9.10989 | 16901 ft | 365 kts | 135° |
| 2026-05-05 16:31 | 49.65469 | 9.13856 | 17465 ft | 368 kts | 135° |
| 2026-05-05 16:32 | 49.63704 | 9.16746 | 18050 ft | 371 kts | 135° |
| 2026-05-05 16:32 | 49.61924 | 9.19659 | 18571 ft | 374 kts | 136° |
| 2026-05-05 16:32 | 49.60129 | 9.22590 | 19083 ft | 377 kts | 136° |
| 2026-05-05 16:32 | 49.58320 | 9.25539 | 19611 ft | 380 kts | 136° |
| 2026-05-05 16:33 | 49.56498 | 9.28510 | 20138 ft | 383 kts | 136° |
| 2026-05-05 16:33 | 49.54662 | 9.31495 | 20652 ft | 385 kts | 136° |
| 2026-05-05 16:33 | 49.52809 | 9.34502 | 21171 ft | 388 kts | 136° |
| 2026-05-05 16:33 | 49.50945 | 9.37526 | 21690 ft | 391 kts | 136° |
| 2026-05-05 16:34 | 49.49064 | 9.40572 | 22196 ft | 394 kts | 136° |
| 2026-05-05 16:34 | 49.47171 | 9.43633 | 22703 ft | 397 kts | 136° |
| 2026-05-05 16:34 | 49.45263 | 9.46719 | 23193 ft | 399 kts | 136° |
| 2026-05-05 16:34 | 49.43340 | 9.49826 | 23626 ft | 402 kts | 136° |
| 2026-05-05 16:35 | 49.41405 | 9.52946 | 24029 ft | 404 kts | 136° |
| 2026-05-05 16:35 | 49.39459 | 9.56077 | 24417 ft | 407 kts | 136° |
| 2026-05-05 16:35 | 49.37502 | 9.59229 | 24798 ft | 409 kts | 136° |
| 2026-05-05 16:35 | 49.35538 | 9.62390 | 25175 ft | 411 kts | 136° |
| 2026-05-05 16:36 | 49.33560 | 9.65567 | 25548 ft | 413 kts | 136° |
| 2026-05-05 16:36 | 49.31596 | 9.68717 | 25893 ft | 415 kts | 136° |
| 2026-05-05 16:36 | 49.29564 | 9.71962 | 26251 ft | 417 kts | 136° |
| 2026-05-05 16:36 | 49.27574 | 9.75134 | 26605 ft | 419 kts | 136° |
| 2026-05-05 16:37 | 49.25549 | 9.78363 | 26953 ft | 421 kts | 136° |
| 2026-05-05 16:37 | 49.23516 | 9.81604 | 27283 ft | 423 kts | 136° |
| 2026-05-05 16:37 | 49.21472 | 9.84857 | 27612 ft | 426 kts | 136° |
| 2026-05-05 16:37 | 49.19415 | 9.88132 | 27944 ft | 428 kts | 136° |
| 2026-05-05 16:38 | 49.17350 | 9.91420 | 28271 ft | 430 kts | 136° |
| 2026-05-05 16:38 | 49.15277 | 9.94717 | 28576 ft | 432 kts | 137° |
| 2026-05-05 16:38 | 49.13188 | 9.98030 | 28867 ft | 434 kts | 137° |
| 2026-05-05 16:38 | 49.11086 | 10.01350 | 29162 ft | 436 kts | 137° |
| 2026-05-05 16:39 | 49.08975 | 10.04682 | 29456 ft | 438 kts | 137° |
| 2026-05-05 16:39 | 49.06857 | 10.08023 | 29720 ft | 440 kts | 137° |
| 2026-05-05 16:39 | 49.04698 | 10.11341 | 29993 ft | 441 kts | 139° |
| 2026-05-05 16:39 | 49.02478 | 10.14567 | 30222 ft | 442 kts | 140° |
| 2026-05-05 16:40 | 49.00208 | 10.17734 | 30460 ft | 443 kts | 141° |
| 2026-05-05 16:40 | 48.97915 | 10.20878 | 30680 ft | 444 kts | 141° |
| 2026-05-05 16:40 | 48.95615 | 10.24031 | 30906 ft | 445 kts | 141° |
| 2026-05-05 16:40 | 48.93329 | 10.27196 | 31227 ft | 444 kts | 140° |
| 2026-05-05 16:41 | 48.91064 | 10.30379 | 31559 ft | 443 kts | 140° |
| 2026-05-05 16:41 | 48.88814 | 10.33567 | 31864 ft | 442 kts | 140° |
| 2026-05-05 16:41 | 48.86567 | 10.36750 | 32184 ft | 441 kts | 140° |
| 2026-05-05 16:41 | 48.84354 | 10.39872 | 32494 ft | 440 kts | 140° |
| 2026-05-05 16:42 | 48.82126 | 10.43046 | 32803 ft | 439 kts | 139° |
| 2026-05-05 16:42 | 48.79970 | 10.46322 | 33095 ft | 439 kts | 137° |
| 2026-05-05 16:42 | 48.77869 | 10.49690 | 33385 ft | 439 kts | 136° |
| 2026-05-05 16:42 | 48.75800 | 10.53099 | 33681 ft | 438 kts | 135° |
| 2026-05-05 16:43 | 48.73745 | 10.56503 | 33964 ft | 437 kts | 136° |
| 2026-05-05 16:43 | 48.71681 | 10.59882 | 34205 ft | 437 kts | 136° |
| 2026-05-05 16:43 | 48.69596 | 10.63246 | 34418 ft | 437 kts | 136° |
| 2026-05-05 16:43 | 48.67504 | 10.66584 | 34618 ft | 437 kts | 137° |
| 2026-05-05 16:44 | 48.65403 | 10.69915 | 34794 ft | 438 kts | 137° |
| 2026-05-05 16:44 | 48.63293 | 10.73248 | 34843 ft | 438 kts | 137° |
| 2026-05-05 16:44 | 48.58971 | 10.79624 | 34839 ft | 435 kts | 146° |
| 2026-05-05 16:45 | 48.53809 | 10.84221 | 34839 ft | 431 kts | 156° |
| 2026-05-05 16:45 | 48.52910 | 10.84922 | 34838 ft | 431 kts | 156° |
| 2026-05-05 16:46 | 48.48096 | 10.88687 | 34837 ft | 431 kts | 155° |
| 2026-05-05 16:46 | 48.42769 | 10.92853 | 34838 ft | 432 kts | 155° |
| 2026-05-05 16:47 | 48.37428 | 10.97006 | 34834 ft | 432 kts | 156° |
| 2026-05-05 16:47 | 48.32082 | 11.01142 | 34837 ft | 432 kts | 156° |
| 2026-05-05 16:48 | 48.26727 | 11.05280 | 34837 ft | 433 kts | 156° |
| 2026-05-05 16:48 | 48.21375 | 11.09431 | 34837 ft | 433 kts | 156° |
| 2026-05-05 16:49 | 48.16012 | 11.13559 | 34835 ft | 433 kts | 156° |
| 2026-05-05 16:49 | 48.10644 | 11.17677 | 34839 ft | 434 kts | 156° |
| 2026-05-05 16:50 | 48.05270 | 11.21790 | 34835 ft | 434 kts | 156° |
| 2026-05-05 16:50 | 48.00804 | 11.25206 | 34836 ft | 434 kts | 156° |
| 2026-05-05 16:51 | 47.95429 | 11.29310 | 34833 ft | 434 kts | 156° |
| 2026-05-05 16:51 | 47.90052 | 11.33410 | 34837 ft | 434 kts | 156° |
| 2026-05-05 16:52 | 47.84676 | 11.37513 | 34830 ft | 434 kts | 155° |
| 2026-05-05 16:52 | 47.79357 | 11.41776 | 34826 ft | 435 kts | 154° |
| 2026-05-05 16:53 | 47.74070 | 11.46158 | 34820 ft | 435 kts | 154° |
| 2026-05-05 16:53 | 47.68816 | 11.50479 | 34818 ft | 435 kts | 154° |
| 2026-05-05 16:54 | 47.63511 | 11.54788 | 34813 ft | 435 kts | 154° |
| 2026-05-05 16:54 | 47.58203 | 11.59070 | 34813 ft | 434 kts | 154° |
| 2026-05-05 16:55 | 47.52891 | 11.63345 | 34815 ft | 434 kts | 154° |
| 2026-05-05 16:55 | 47.47578 | 11.67602 | 34823 ft | 434 kts | 155° |
| 2026-05-05 16:56 | 47.42745 | 11.71397 | 34819 ft | 434 kts | 154° |
| 2026-05-05 16:56 | 47.37332 | 11.75329 | 34828 ft | 431 kts | 164° |
| 2026-05-05 16:57 | 47.31480 | 11.76751 | 34837 ft | 426 kts | 183° |
| 2026-05-05 16:57 | 47.25595 | 11.76398 | 34852 ft | 426 kts | 184° |
| 2026-05-05 16:58 | 47.19661 | 11.76057 | 34858 ft | 427 kts | 184° |
| 2026-05-05 16:58 | 47.13724 | 11.75735 | 34875 ft | 427 kts | 184° |
| 2026-05-05 16:59 | 47.07788 | 11.75415 | 34884 ft | 426 kts | 184° |
| 2026-05-05 16:59 | 47.01860 | 11.75103 | 34905 ft | 427 kts | 184° |
| 2026-05-05 17:00 | 46.95926 | 11.74777 | 34906 ft | 427 kts | 184° |
| 2026-05-05 17:00 | 46.89980 | 11.74445 | 34928 ft | 429 kts | 184° |
| 2026-05-05 17:01 | 46.84011 | 11.74113 | 34945 ft | 429 kts | 184° |
| 2026-05-05 17:01 | 46.78085 | 11.73797 | 34945 ft | 429 kts | 184° |
| 2026-05-05 17:02 | 46.72107 | 11.73482 | 34958 ft | 430 kts | 184° |
| 2026-05-05 17:02 | 46.66127 | 11.73157 | 34952 ft | 430 kts | 184° |
| 2026-05-05 17:03 | 46.60140 | 11.72829 | 34963 ft | 431 kts | 185° |
| 2026-05-05 17:03 | 46.54142 | 11.72493 | 35122 ft | 432 kts | 185° |
| 2026-05-05 17:04 | 46.51144 | 11.72323 | 35363 ft | 431 kts | 185° |
| 2026-05-05 17:04 | 46.48147 | 11.72156 | 35590 ft | 431 kts | 185° |
| 2026-05-05 17:04 | 46.45149 | 11.71989 | 35791 ft | 431 kts | 185° |
| 2026-05-05 17:04 | 46.43165 | 11.71878 | 35931 ft | 431 kts | 185° |
| 2026-05-05 17:05 | 46.42155 | 11.71822 | 35995 ft | 431 kts | 185° |